createdAt,value
2023-03-04T00:00:33.528Z,101622.03
2023-03-04T00:03:01.441Z,101616.81
2023-03-04T00:05:31.098Z,101613.84
2023-03-04T00:08:01.496Z,101617.50
2023-03-04T00:10:29.149Z,101607.06
2023-03-04T00:12:56.806Z,101613.84
2023-03-04T00:15:24.415Z,101608.91
2023-03-04T00:17:52.126Z,101616.00
2023-03-04T00:20:20.036Z,101616.25
2023-03-04T00:22:48.132Z,101608.19
2023-03-04T00:25:17.469Z,101606.78
2023-03-04T00:27:45.152Z,101610.72
2023-03-04T00:30:13.215Z,101611.16
2023-03-04T00:32:40.947Z,101612.44
2023-03-04T00:35:09.401Z,101601.56
2023-03-04T00:37:37.219Z,101601.72
2023-03-04T00:40:06.030Z,101596.19
2023-03-04T00:42:37.365Z,101603.28
2023-03-04T00:45:07.820Z,101602.56
2023-03-04T00:47:35.525Z,101599.47
2023-03-04T00:50:03.281Z,101606.09
2023-03-04T00:52:30.984Z,101589.16
2023-03-04T00:54:58.648Z,101594.94
2023-03-04T00:57:26.267Z,101595.06
2023-03-04T00:59:55.268Z,101592.81
2023-03-04T01:02:24.408Z,101593.81
2023-03-04T01:04:52.249Z,101588.16
2023-03-04T01:07:19.920Z,101588.03
2023-03-04T01:09:47.676Z,101585.66
2023-03-04T01:12:15.439Z,101583.38
2023-03-04T01:14:43.128Z,101581.38
2023-03-04T01:17:12.775Z,101583.78
2023-03-04T01:19:40.389Z,101583.78
2023-03-04T01:22:08.023Z,101583.06
2023-03-04T01:24:36.624Z,101580.97
2023-03-04T01:27:04.497Z,101568.38
2023-03-04T01:29:32.401Z,101555.84
2023-03-04T01:32:00.315Z,101557.34
2023-03-04T01:34:29.496Z,101558.91
2023-03-04T01:36:57.248Z,101553.69
2023-03-04T01:39:25.038Z,101547.06
2023-03-04T01:41:52.970Z,101546.22
2023-03-04T01:44:20.937Z,101541.69
2023-03-04T01:46:50.900Z,101549.44
2023-03-04T01:49:20.530Z,101535.03
2023-03-04T01:51:52.344Z,101528.09
2023-03-04T01:54:22.009Z,101525.59
2023-03-04T01:56:51.834Z,101518.97
2023-03-04T01:59:21.607Z,101518.13
2023-03-04T02:01:51.343Z,101507.38
2023-03-04T02:04:22.131Z,101510.91
2023-03-04T02:06:52.277Z,101514.03
2023-03-04T02:09:20.547Z,101498.31
2023-03-04T02:11:49.222Z,101498.22
2023-03-04T02:14:17.782Z,101496.22
2023-03-04T02:16:45.750Z,101494.94
2023-03-04T02:19:20.479Z,101491.28
2023-03-04T02:21:48.180Z,101494.09
2023-03-04T02:24:27.809Z,101485.22
2023-03-04T02:26:56.927Z,101491.97
2023-03-04T02:29:24.596Z,101497.63
2023-03-04T02:31:54.579Z,101486.47
2023-03-04T02:34:26.619Z,101483.09
2023-03-04T02:36:57.574Z,101478.84
2023-03-04T02:39:32.119Z,101476.44
2023-03-04T02:42:02.119Z,101469.38
2023-03-04T02:44:31.678Z,101472.63
2023-03-04T02:47:00.100Z,101475.03
2023-03-04T02:49:30.458Z,101467.09
2023-03-04T02:52:01.990Z,101475.03
2023-03-04T02:54:30.624Z,101473.59
2023-03-04T02:57:06.100Z,101465.09
2023-03-04T02:59:33.756Z,101473.31
2023-03-04T03:02:01.501Z,101465.69
2023-03-04T03:04:29.503Z,101470.50
2023-03-04T03:06:57.174Z,101474.59
2023-03-04T03:09:24.921Z,101480.50
2023-03-04T03:11:52.581Z,101476.16
2023-03-04T03:14:21.829Z,101470.50
2023-03-04T03:16:49.473Z,101466.41
2023-03-04T03:19:17.098Z,101466.41
2023-03-04T03:21:45.083Z,101468.09
2023-03-04T03:24:12.672Z,101468.94
2023-03-04T03:26:40.935Z,101466.09
2023-03-04T03:29:08.678Z,101466.97
2023-03-04T03:31:37.701Z,101464.41
2023-03-04T03:34:05.574Z,101459.75
2023-03-04T03:36:33.196Z,101462.16
2023-03-04T03:39:00.815Z,101457.50
2023-03-04T03:41:28.662Z,101457.19
2023-03-04T03:43:56.915Z,101454.97
2023-03-04T03:46:24.599Z,101449.28
2023-03-04T03:48:53.666Z,101451.56
2023-03-04T03:51:22.346Z,101452.53
2023-03-04T03:53:50.107Z,101448.88
2023-03-04T03:56:17.706Z,101442.22
2023-03-04T03:58:45.403Z,101437.84
2023-03-04T04:01:13.051Z,101450.28
2023-03-04T04:03:41.186Z,101444.91
2023-03-04T04:06:10.172Z,101443.63
2023-03-04T04:08:37.809Z,101445.31
2023-03-04T04:11:05.995Z,101438.25
2023-03-04T04:13:33.716Z,101450.53
2023-03-04T04:16:01.629Z,101446.00
2023-03-04T04:18:29.446Z,101441.63
2023-03-04T04:20:57.104Z,101440.47
2023-03-04T04:23:26.183Z,101435.16
2023-03-04T04:25:55.647Z,101435.88
2023-03-04T04:28:23.461Z,101439.53
2023-03-04T04:30:51.301Z,101437.00
2023-03-04T04:33:18.907Z,101430.66
2023-03-04T04:35:46.581Z,101440.97
2023-03-04T04:38:14.459Z,101442.56
2023-03-04T04:40:43.464Z,101438.16
2023-03-04T04:43:11.341Z,101441.00
2023-03-04T04:45:39.147Z,101427.41
2023-03-04T04:48:07.284Z,101428.84
2023-03-04T04:50:34.904Z,101424.91
2023-03-04T04:53:02.588Z,101415.44
2023-03-04T04:55:30.310Z,101421.78
2023-03-04T04:57:59.282Z,101415.00
2023-03-04T05:00:27.433Z,101412.34
2023-03-04T05:02:55.008Z,101413.03
2023-03-04T05:05:22.980Z,101415.31
2023-03-04T05:07:50.705Z,101409.78
2023-03-04T05:10:18.500Z,101402.72
2023-03-04T05:12:46.178Z,101402.88
2023-03-04T05:15:15.242Z,101403.44
2023-03-04T05:17:43.224Z,101392.97
2023-03-04T05:20:11.954Z,101400.03
2023-03-04T05:22:39.676Z,101389.03
2023-03-04T05:25:07.941Z,101399.50
2023-03-04T05:27:35.607Z,101393.16
2023-03-04T05:30:03.362Z,101393.28
2023-03-04T05:32:32.480Z,101404.16
2023-03-04T05:35:00.165Z,101397.81
2023-03-04T05:37:27.861Z,101401.34
2023-03-04T05:39:55.477Z,101414.47
2023-03-04T05:42:23.995Z,101401.19
2023-03-04T05:44:51.639Z,101397.53
2023-03-04T05:47:19.446Z,101398.06
2023-03-04T05:49:48.629Z,101399.50
2023-03-04T05:52:16.325Z,101398.34
2023-03-04T05:54:43.970Z,101398.38
2023-03-04T05:57:11.592Z,101397.53
2023-03-04T05:59:39.276Z,101410.50
2023-03-04T06:02:07.015Z,101409.06
2023-03-04T06:04:34.940Z,101405.00
2023-03-04T06:07:03.920Z,101407.13
2023-03-04T06:09:31.657Z,101392.88
2023-03-04T06:11:59.343Z,101397.81
2023-03-04T06:14:27.115Z,101405.16
2023-03-04T06:16:54.926Z,101406.41
2023-03-04T06:19:22.907Z,101405.84
2023-03-04T06:21:50.707Z,101408.13
2023-03-04T06:24:19.975Z,101401.75
2023-03-04T06:26:47.612Z,101407.41
2023-03-04T06:29:15.424Z,101404.28
2023-03-04T06:31:43.137Z,101395.56
2023-03-04T06:34:10.833Z,101395.41
2023-03-04T06:36:38.612Z,101400.91
2023-03-04T06:39:06.549Z,101404.28
2023-03-04T06:41:36.127Z,101407.97
2023-03-04T06:44:04.021Z,101396.66
2023-03-04T06:46:31.855Z,101395.38
2023-03-04T06:48:59.496Z,101396.38
2023-03-04T06:51:27.479Z,101402.31
2023-03-04T06:53:55.324Z,101401.03
2023-03-04T06:56:23.184Z,101417.56
2023-03-04T06:58:52.432Z,101395.53
2023-03-04T07:01:22.508Z,101406.84
2023-03-04T07:03:53.662Z,101401.19
2023-03-04T07:06:23.148Z,101396.41
2023-03-04T07:08:51.038Z,101401.47
2023-03-04T07:11:19.231Z,101405.28
2023-03-04T07:13:47.567Z,101402.13
2023-03-04T07:16:18.820Z,101405.25
2023-03-04T07:18:47.519Z,101395.75
2023-03-04T07:21:16.084Z,101402.22
2023-03-04T07:23:44.645Z,101407.59
2023-03-04T07:26:15.046Z,101410.56
2023-03-04T07:28:43.414Z,101405.91
2023-03-04T07:31:22.215Z,101410.19
2023-03-04T07:33:50.702Z,101407.66
2023-03-04T07:36:19.734Z,101412.47
2023-03-04T07:38:49.057Z,101420.31
2023-03-04T07:41:17.222Z,101417.97
2023-03-04T07:43:44.996Z,101415.97
2023-03-04T07:46:12.914Z,101414.28
2023-03-04T07:48:41.962Z,101410.72
2023-03-04T07:51:11.441Z,101416.53
2023-03-04T07:53:44.207Z,101416.13
2023-03-04T07:56:14.492Z,101412.31
2023-03-04T07:58:42.256Z,101416.97
2023-03-04T08:01:11.429Z,101410.78
2023-03-04T08:03:39.458Z,101415.03
2023-03-04T08:06:09.975Z,101413.44
2023-03-04T08:08:38.691Z,101417.97
2023-03-04T08:11:07.520Z,101421.19
2023-03-04T08:13:36.240Z,101408.22
2023-03-04T08:16:04.678Z,101415.97
2023-03-04T08:18:32.380Z,101412.16
2023-03-04T08:21:00.829Z,101406.22
2023-03-04T08:23:30.065Z,101409.47
2023-03-04T08:25:57.881Z,101416.66
2023-03-04T08:28:26.398Z,101402.50
2023-03-04T08:30:56.587Z,101403.75
2023-03-04T08:33:26.491Z,101410.97
2023-03-04T08:35:54.811Z,101405.56
2023-03-04T08:38:22.456Z,101401.75
2023-03-04T08:40:54.877Z,101400.09
2023-03-04T08:43:22.986Z,101403.91
2023-03-04T08:45:50.768Z,101406.84
2023-03-04T08:48:18.649Z,101415.25
2023-03-04T08:50:46.976Z,101409.03
2023-03-04T08:53:15.715Z,101414.66
2023-03-04T08:55:44.675Z,101408.00
2023-03-04T08:58:14.082Z,101406.03
2023-03-04T09:00:45.095Z,101413.09
2023-03-04T09:03:13.395Z,101408.41
2023-03-04T09:05:42.689Z,101408.13
2023-03-04T09:08:10.489Z,101406.84
2023-03-04T09:10:38.278Z,101410.22
2023-03-04T09:13:06.331Z,101410.66
2023-03-04T09:15:36.031Z,101409.81
2023-03-04T09:18:03.910Z,101405.72
2023-03-04T09:20:31.976Z,101416.97
2023-03-04T09:22:59.632Z,101415.41
2023-03-04T09:25:27.412Z,101416.34
2023-03-04T09:27:57.757Z,101414.22
2023-03-04T09:30:27.507Z,101422.84
2023-03-04T09:32:57.590Z,101407.97
2023-03-04T09:35:25.456Z,101423.94
2023-03-04T09:37:53.628Z,101415.34
2023-03-04T09:40:24.686Z,101419.41
2023-03-04T09:42:55.877Z,101421.56
2023-03-04T09:45:27.789Z,101419.91
2023-03-04T09:47:57.778Z,101418.47
2023-03-04T09:50:26.340Z,101419.59
2023-03-04T09:53:07.625Z,101420.59
2023-03-04T09:55:38.448Z,101424.97
2023-03-04T09:58:13.356Z,101422.75
2023-03-04T10:00:44.830Z,101429.50
2023-03-04T10:03:19.286Z,101423.84
2023-03-04T10:05:55.011Z,101415.63
2023-03-04T10:08:38.058Z,101411.63
2023-03-04T10:11:13.190Z,101413.50
2023-03-04T10:13:49.260Z,101413.72
2023-03-04T10:16:22.374Z,101411.88
2023-03-04T10:18:57.779Z,101407.91
2023-03-04T10:21:32.047Z,101404.06
2023-03-04T10:24:02.670Z,101407.91
2023-03-04T10:26:33.416Z,101413.97
2023-03-04T10:29:03.029Z,101418.66
2023-03-04T10:31:35.076Z,101409.91
2023-03-04T10:34:04.315Z,101404.09
2023-03-04T10:36:41.588Z,101402.59
2023-03-04T10:39:12.660Z,101404.44
2023-03-04T10:41:44.559Z,101404.22
2023-03-04T10:44:18.231Z,101398.59
2023-03-04T10:46:48.184Z,101393.94
2023-03-04T10:49:20.028Z,101395.47
2023-03-04T10:51:50.095Z,101399.88
2023-03-04T10:54:25.297Z,101399.56
2023-03-04T10:57:00.337Z,101396.41
2023-03-04T10:59:35.392Z,101394.72
2023-03-04T11:02:14.429Z,101389.81
2023-03-04T11:04:45.885Z,101392.03
2023-03-04T11:07:16.464Z,101388.66
2023-03-04T11:09:45.896Z,101408.25
2023-03-04T11:12:16.192Z,101399.00
2023-03-04T11:14:49.116Z,101397.84
2023-03-04T11:17:20.482Z,101397.31
2023-03-04T11:19:55.337Z,101399.13
2023-03-04T11:22:24.814Z,101396.00
2023-03-04T11:24:59.290Z,101392.72
2023-03-04T11:27:37.193Z,101393.78
2023-03-04T11:30:19.885Z,101392.44
2023-03-04T11:32:51.866Z,101399.41
2023-03-04T11:35:26.633Z,101391.13
2023-03-04T11:38:03.336Z,101392.28
2023-03-04T11:40:37.114Z,101387.50
2023-03-04T11:43:08.658Z,101382.53
2023-03-04T11:46:07.892Z,101381.88
2023-03-04T11:48:50.507Z,101383.25
2023-03-04T11:51:25.026Z,101376.34
2023-03-04T11:54:04.132Z,101367.53
2023-03-04T11:56:35.821Z,101376.81
2023-03-04T11:59:17.572Z,101365.66
2023-03-04T12:01:50.821Z,101358.31
2023-03-04T12:04:31.862Z,101364.47
2023-03-04T12:07:12.989Z,101362.81
2023-03-04T12:09:48.397Z,101354.31
2023-03-04T12:12:28.118Z,101350.84
2023-03-04T12:15:08.312Z,101349.59
2023-03-04T12:18:02.476Z,101345.47
2023-03-04T12:21:08.827Z,101341.47
2023-03-04T12:24:11.246Z,101342.84
2023-03-04T12:26:43.237Z,101341.72
2023-03-04T12:29:20.238Z,101334.88
2023-03-04T12:31:55.361Z,101338.03
2023-03-04T12:34:39.125Z,101332.94
2023-03-04T12:37:29.674Z,101338.13
2023-03-04T12:40:30.979Z,101348.38
2023-03-04T12:43:10.656Z,101336.16
2023-03-04T12:45:45.670Z,101348.06
2023-03-04T12:48:27.302Z,101336.25
2023-03-04T12:51:05.925Z,101334.50
2023-03-04T12:53:44.157Z,101334.00
2023-03-04T12:56:24.346Z,101334.00
2023-03-04T12:58:53.842Z,101328.63
2023-03-04T13:01:30.556Z,101330.31
2023-03-04T13:04:06.475Z,101332.03
2023-03-04T13:06:45.292Z,101325.03
2023-03-04T13:09:20.915Z,101330.25
2023-03-04T13:12:04.950Z,101322.75
2023-03-04T13:14:34.873Z,101328.84
2023-03-04T13:17:28.551Z,101324.63
2023-03-04T13:19:59.613Z,101317.81
2023-03-04T13:22:35.619Z,101311.25
2023-03-04T13:25:42.237Z,101303.03
2023-03-04T13:28:20.706Z,101314.78
2023-03-04T13:31:29.026Z,101313.03
2023-03-04T13:34:04.921Z,101317.75
2023-03-04T13:36:50.990Z,101307.09
2023-03-04T13:39:30.989Z,101321.09
2023-03-04T13:41:59.242Z,101328.03
2023-03-04T13:44:58.131Z,101314.88
2023-03-04T13:47:33.921Z,101311.97
2023-03-04T13:50:31.843Z,101318.78
2023-03-04T13:53:23.728Z,101320.13
2023-03-04T13:56:31.337Z,101319.13
2023-03-04T13:59:20.335Z,101310.66
2023-03-04T14:02:03.656Z,101314.50
2023-03-04T14:04:34.922Z,101321.25
2023-03-04T14:07:20.137Z,101305.91
2023-03-04T14:10:00.126Z,101321.88
2023-03-04T14:12:30.588Z,101303.75
2023-03-04T14:15:04.712Z,101311.66
2023-03-04T14:17:37.393Z,101317.75
2023-03-04T14:20:08.947Z,101308.44
2023-03-04T14:22:40.918Z,101315.59
2023-03-04T14:25:23.133Z,101312.03
2023-03-04T14:27:51.898Z,101314.44
2023-03-04T14:30:39.026Z,101315.38
2023-03-04T14:33:16.081Z,101309.91
2023-03-04T14:35:48.462Z,101312.81
2023-03-04T14:38:22.291Z,101313.97
2023-03-04T14:40:54.437Z,101312.97
2023-03-04T14:43:24.189Z,101310.97
2023-03-04T14:45:57.162Z,101301.38
2023-03-04T14:48:28.987Z,101306.81
2023-03-04T14:50:58.704Z,101296.44
2023-03-04T14:53:28.043Z,101302.53
2023-03-04T14:55:57.982Z,101298.97
2023-03-04T14:58:28.024Z,101299.38
2023-03-04T15:01:15.766Z,101297.22
2023-03-04T15:03:56.705Z,101280.97
2023-03-04T15:06:26.838Z,101283.25
2023-03-04T15:09:01.635Z,101287.31
2023-03-04T15:11:31.707Z,101280.97
2023-03-04T15:14:01.387Z,101285.03
2023-03-04T15:16:51.891Z,101283.00
2023-03-04T15:19:28.536Z,101274.66
2023-03-04T15:22:05.154Z,101278.66
2023-03-04T15:24:33.988Z,101276.88
2023-03-04T15:27:04.181Z,101267.28
2023-03-04T15:29:34.462Z,101277.88
2023-03-04T15:32:04.575Z,101282.28
2023-03-04T15:34:33.630Z,101282.94
2023-03-04T15:37:01.355Z,101271.69
2023-03-04T15:39:31.637Z,101277.50
2023-03-04T15:42:00.517Z,101274.69
2023-03-04T15:44:28.231Z,101284.16
2023-03-04T15:46:56.200Z,101274.22
2023-03-04T15:49:24.180Z,101281.75
2023-03-04T15:51:53.601Z,101274.16
2023-03-04T15:54:32.292Z,101283.44
2023-03-04T15:57:00.739Z,101294.66
2023-03-04T15:59:30.971Z,101278.66
2023-03-04T16:01:58.652Z,101287.59
2023-03-04T16:04:29.014Z,101287.44
2023-03-04T16:07:00.832Z,101287.75
2023-03-04T16:09:28.491Z,101282.22
2023-03-04T16:12:01.626Z,101291.66
2023-03-04T16:14:29.374Z,101294.13
2023-03-04T16:16:57.028Z,101295.19
2023-03-04T16:19:27.239Z,101295.63
2023-03-04T16:21:56.321Z,101301.22
2023-03-04T16:24:27.470Z,101300.47
2023-03-04T16:26:55.511Z,101301.31
2023-03-04T16:29:23.325Z,101300.56
2023-03-04T16:31:51.036Z,101304.97
2023-03-04T16:34:18.693Z,101308.25
2023-03-04T16:36:46.558Z,101299.81
2023-03-04T16:39:21.266Z,101299.81
2023-03-04T16:41:51.014Z,101302.34
2023-03-04T16:44:18.924Z,101302.19
2023-03-04T16:46:46.693Z,101303.19
2023-03-04T16:49:14.536Z,101298.53
2023-03-04T16:51:44.341Z,101293.44
2023-03-04T16:54:17.752Z,101307.41
2023-03-04T16:56:45.504Z,101295.53
2023-03-04T16:59:17.488Z,101291.16
2023-03-04T17:01:45.827Z,101288.38
2023-03-04T17:04:13.566Z,101291.88
2023-03-04T17:06:41.314Z,101297.41
2023-03-04T17:09:10.100Z,101294.72
2023-03-04T17:11:38.520Z,101282.28
2023-03-04T17:14:06.541Z,101288.53
2023-03-04T17:16:35.943Z,101285.38
2023-03-04T17:19:03.707Z,101290.66
2023-03-04T17:21:31.450Z,101284.59
2023-03-04T17:23:59.913Z,101293.50
2023-03-04T17:26:27.686Z,101294.63
2023-03-04T17:28:56.863Z,101298.31
2023-03-04T17:31:24.561Z,101298.03
2023-03-04T17:33:56.674Z,101290.50
2023-03-04T17:36:24.365Z,101294.56
2023-03-04T17:38:52.030Z,101296.28
2023-03-04T17:41:22.750Z,101291.97
2023-03-04T17:43:54.556Z,101292.09
2023-03-04T17:46:24.709Z,101297.72
2023-03-04T17:48:56.077Z,101303.78
2023-03-04T17:51:31.028Z,101298.72
2023-03-04T17:54:01.113Z,101302.28
2023-03-04T17:56:32.552Z,101309.53
2023-03-04T17:59:02.288Z,101309.75
2023-03-04T18:01:29.904Z,101307.50
2023-03-04T18:03:59.559Z,101310.19
2023-03-04T18:06:27.995Z,101322.22
2023-03-04T18:08:56.019Z,101317.31
2023-03-04T18:11:27.702Z,101308.44
2023-03-04T18:13:58.464Z,101314.69
2023-03-04T18:16:27.103Z,101314.41
2023-03-04T18:19:01.103Z,101318.94
2023-03-04T18:21:30.648Z,101308.50
2023-03-04T18:23:59.304Z,101305.28
2023-03-04T18:26:27.414Z,101297.88
2023-03-04T18:28:58.352Z,101299.47
2023-03-04T18:31:31.507Z,101294.38
2023-03-04T18:34:02.146Z,101304.38
2023-03-04T18:36:30.767Z,101304.13
2023-03-04T18:38:59.656Z,101307.91
2023-03-04T18:41:29.450Z,101303.25
2023-03-04T18:43:57.284Z,101304.22
2023-03-04T18:46:32.069Z,101313.00
2023-03-04T18:49:04.523Z,101317.78
2023-03-04T18:51:32.642Z,101317.19
2023-03-04T18:54:01.993Z,101312.16
2023-03-04T18:56:37.625Z,101316.56
2023-03-04T18:59:08.412Z,101320.66
2023-03-04T19:01:36.251Z,101324.63
2023-03-04T19:04:05.999Z,101319.13
2023-03-04T19:06:36.364Z,101325.22
2023-03-04T19:09:06.535Z,101322.69
2023-03-04T19:11:34.855Z,101327.91
2023-03-04T19:14:06.049Z,101319.56
2023-03-04T19:16:33.893Z,101329.44
2023-03-04T19:19:01.815Z,101329.75
2023-03-04T19:21:30.857Z,101329.75
2023-03-04T19:23:58.686Z,101325.63
2023-03-04T19:26:26.384Z,101320.84
2023-03-04T19:28:54.153Z,101321.25
2023-03-04T19:31:21.727Z,101321.25
2023-03-04T19:33:49.755Z,101321.09
2023-03-04T19:36:17.519Z,101327.19
2023-03-04T19:38:54.821Z,101316.88
2023-03-04T19:41:24.444Z,101322.41
2023-03-04T19:43:52.429Z,101324.94
2023-03-04T19:46:21.241Z,101325.63
2023-03-04T19:48:50.238Z,101324.38
2023-03-04T19:51:20.268Z,101322.09
2023-03-04T19:53:50.676Z,101320.84
2023-03-04T19:56:18.615Z,101317.44
2023-03-04T19:58:48.191Z,101314.63
2023-03-04T20:01:27.927Z,101323.66
2023-03-04T20:03:56.370Z,101325.38
2023-03-04T20:06:26.951Z,101318.41
2023-03-04T20:08:57.496Z,101328.75
2023-03-04T20:11:25.826Z,101329.75
2023-03-04T20:13:54.006Z,101328.31
2023-03-04T20:16:22.079Z,101329.84
2023-03-04T20:18:49.857Z,101327.28
2023-03-04T20:21:17.800Z,101323.53
2023-03-04T20:23:45.574Z,101321.53
2023-03-04T20:26:14.555Z,101320.69
2023-03-04T20:28:42.279Z,101326.91
2023-03-04T20:31:11.754Z,101318.47
2023-03-04T20:33:39.560Z,101313.25
2023-03-04T20:36:07.523Z,101320.47
2023-03-04T20:38:35.268Z,101319.28
2023-03-04T20:41:02.921Z,101323.38
2023-03-04T20:43:32.096Z,101329.75
2023-03-04T20:46:38.139Z,101339.66
2023-03-04T20:49:09.168Z,101323.13
2023-03-04T20:51:37.434Z,101323.97
2023-03-04T20:54:06.236Z,101326.13
2023-03-04T20:56:34.713Z,101327.41
2023-03-04T20:59:05.159Z,101314.41
2023-03-04T21:01:34.202Z,101318.94
2023-03-04T21:04:02.556Z,101311.72
2023-03-04T21:06:30.768Z,101315.81
2023-03-04T21:09:02.110Z,101319.75
2023-03-04T21:11:30.034Z,101314.78
2023-03-04T21:13:57.931Z,101318.19
2023-03-04T21:16:28.959Z,101317.34
2023-03-04T21:18:58.370Z,101319.31
2023-03-04T21:21:31.037Z,101322.00
2023-03-04T21:23:59.955Z,101306.78
2023-03-04T21:26:27.725Z,101314.69
2023-03-04T21:28:55.766Z,101323.00
2023-03-04T21:31:25.553Z,101317.66
2023-03-04T21:33:54.918Z,101311.56
2023-03-04T21:36:23.998Z,101309.59
2023-03-04T21:38:52.345Z,101303.22
2023-03-04T21:41:22.338Z,101299.03
2023-03-04T21:43:50.868Z,101307.63
2023-03-04T21:46:23.289Z,101301.31
2023-03-04T21:48:51.620Z,101299.91
2023-03-04T21:51:19.447Z,101296.22
2023-03-04T21:53:48.586Z,101306.66
2023-03-04T21:56:17.783Z,101302.41
2023-03-04T21:58:45.867Z,101291.69
2023-03-04T22:01:16.213Z,101298.75
2023-03-04T22:03:44.178Z,101291.97
2023-03-04T22:06:13.351Z,101291.13
2023-03-04T22:08:43.507Z,101289.88
2023-03-04T22:11:12.855Z,101281.38
2023-03-04T22:13:41.208Z,101288.16
2023-03-04T22:16:10.067Z,101292.56
2023-03-04T22:18:40.527Z,101296.78
2023-03-04T22:21:11.601Z,101289.44
2023-03-04T22:23:39.672Z,101295.38
2023-03-04T22:26:09.541Z,101289.19
2023-03-04T22:28:38.716Z,101288.31
2023-03-04T22:31:14.994Z,101284.34
2023-03-04T22:33:43.880Z,101292.56
2023-03-04T22:36:11.983Z,101294.38
2023-03-04T22:38:40.165Z,101290.56
2023-03-04T22:41:14.204Z,101281.41
2023-03-04T22:43:43.333Z,101275.06
2023-03-04T22:46:14.913Z,101270.41
2023-03-04T22:48:43.096Z,101274.06
2023-03-04T22:51:11.792Z,101271.97
2023-03-04T22:53:40.638Z,101261.94
2023-03-04T22:56:08.784Z,101266.31
2023-03-04T22:58:36.866Z,101269.13
2023-03-04T23:01:06.127Z,101267.72
2023-03-04T23:03:34.328Z,101269.00
2023-03-04T23:06:03.286Z,101262.53
2023-03-04T23:08:33.398Z,101263.34
2023-03-04T23:11:01.382Z,101264.63
2023-03-04T23:13:32.059Z,101261.81
2023-03-04T23:16:02.519Z,101262.22
2023-03-04T23:18:31.748Z,101263.63
2023-03-04T23:20:59.400Z,101270.69
2023-03-04T23:23:27.131Z,101261.50
2023-03-04T23:25:54.938Z,101262.94
2023-03-04T23:28:22.606Z,101258.41
2023-03-04T23:30:50.457Z,101245.28
2023-03-04T23:33:18.126Z,101244.31
2023-03-04T23:35:47.455Z,101248.28
2023-03-04T23:38:15.236Z,101255.75
2023-03-04T23:40:43.165Z,101245.44
2023-03-04T23:43:13.184Z,101251.09
2023-03-04T23:45:40.922Z,101236.56
2023-03-04T23:48:08.613Z,101237.13
2023-03-04T23:50:38.062Z,101238.41
2023-03-04T23:53:07.005Z,101236.44
2023-03-04T23:55:34.755Z,101240.09
2023-03-04T23:58:02.440Z,101242.06
